Chinnor, United Kingdom
Current Conditions -  °F | °C
As of 5:50 PM on Saturday 20 Dec 2014 (Local Time) from EGUB Reporting Station
Clear Clear  
Wind Chill: 40°   Ceiling: Unl
Heat Index: 45°   Visibility: 6mi
Dew Point: 37°   Wind: 8mph
Humidity: 76%   Direction: 260°W
Pressure: 30.39"   Gusts: NA
Location:  51.7°N, 0.91°W
Report Text: EGUB 201750Z AUTO 26007KT 9999 // NCD 07/03 Q1029
Loading
Personal Weather Stations






























Interactive Weather Map New forecast layout! Learn more

10-Day Weather Forecast

Advertisements
Track Severe Weather on mobile